RKPC/CJU METAR and TAF weather

Enter ICAO airport designator
Station Type Date Time Source
RKPC METAR 2020/02/16 20:00 UTC NOAA

RKPC 162000Z 32022G34KT 9999 -SHSN FEW015 BKN030 03/M03 Q1020 WS ALL RWY NOSIG


Station Type Date Time Source
RKPC Decoded METAR 2020/02/16 20:00 UTC NOAA

Cheju International Airport, Korea, South (RKPC) 33-30N 126-30E 28M
Feb 16, 2020 - 03:00 PM EST / 2020.02.16 2000 UTC
Wind: from the NW (320 degrees) at 25 MPH (22 KT) gusting to 39 MPH (34 KT):0
Visibility: greater than 7 mile(s):0
Sky conditions: mostly cloudy
Weather: light snow showers
Temperature: 37 F (3 C)
Dew Point: 26 F (-3 C)
Relative Humidity: 64%
Pressure (altimeter): 30.12 in. Hg (1020 hPa)
ob: RKPC 162000Z 32022G34KT 9999 -SHSN FEW015 BKN030 03/M03 Q1020 WS ALL RWY NOSIG
cycle: 20

Station Type Date Time Source
RKPC TAF 2020/02/16 18:57 UTC NOAA

TAF TAF RKPC 161700Z 1618/1724 31022G40KT 6000 -SHSN FEW010 BKN025 TN01/1622Z TX03/1702Z TN03/1718Z
TEMPO 1702/1707 0800 SHSN
BECMG 1720/1721 33018G30KT NSW

Example: see airport list